createdAt,value
2023-03-11T00:01:52.574Z,45.70
2023-03-11T00:04:19.212Z,45.80
2023-03-11T00:06:45.850Z,45.70
2023-03-11T00:09:12.476Z,45.80
2023-03-11T00:11:39.116Z,45.80
2023-03-11T00:14:05.747Z,45.80
2023-03-11T00:16:32.446Z,45.80
2023-03-11T00:18:59.124Z,45.70
2023-03-11T00:21:25.744Z,45.70
2023-03-11T00:23:52.366Z,45.70
2023-03-11T00:26:19.005Z,45.70
2023-03-11T00:28:45.623Z,45.70
2023-03-11T00:31:12.287Z,45.70
2023-03-11T00:33:39.167Z,45.80
2023-03-11T00:36:05.862Z,45.80
2023-03-11T00:38:32.575Z,45.70
2023-03-11T00:40:59.233Z,45.70
2023-03-11T00:43:25.886Z,45.60
2023-03-11T00:45:52.545Z,45.70
2023-03-11T00:48:19.202Z,45.60
2023-03-11T00:50:46.051Z,45.70
2023-03-11T00:53:12.696Z,45.70
2023-03-11T00:55:39.328Z,45.70
2023-03-11T00:58:05.991Z,45.60
2023-03-11T01:00:32.651Z,45.60
2023-03-11T01:02:59.273Z,45.60
2023-03-11T01:05:25.889Z,45.70
2023-03-11T01:07:52.546Z,45.70
2023-03-11T01:10:19.185Z,45.60
2023-03-11T01:12:45.858Z,45.60
2023-03-11T01:15:12.506Z,45.70
2023-03-11T01:17:39.298Z,45.70
2023-03-11T01:20:05.910Z,45.60
2023-03-11T01:22:32.516Z,45.70
2023-03-11T01:24:59.356Z,45.60
2023-03-11T01:27:25.996Z,45.70
2023-03-11T01:29:52.648Z,45.60
2023-03-11T01:32:19.527Z,45.60
2023-03-11T01:34:46.166Z,45.60
2023-03-11T01:37:12.811Z,45.60
2023-03-11T01:39:39.669Z,45.60
2023-03-11T01:42:06.279Z,45.60
2023-03-11T01:44:32.890Z,45.60
2023-03-11T01:46:59.535Z,45.50
2023-03-11T01:49:26.483Z,45.60
2023-03-11T01:51:53.147Z,45.50
2023-03-11T01:54:19.819Z,45.60
2023-03-11T01:56:46.448Z,45.60
2023-03-11T01:59:13.062Z,45.50
2023-03-11T02:01:39.704Z,45.50
2023-03-11T02:04:06.344Z,45.50
2023-03-11T02:06:32.977Z,45.50
2023-03-11T02:08:59.591Z,45.60
2023-03-11T02:11:26.211Z,45.40
2023-03-11T02:13:52.827Z,45.50
2023-03-11T02:16:19.511Z,45.50
2023-03-11T02:18:46.408Z,45.50
2023-03-11T02:21:13.236Z,45.50
2023-03-11T02:23:39.890Z,45.50
2023-03-11T02:26:06.618Z,45.50
2023-03-11T02:28:33.279Z,45.50
2023-03-11T02:30:59.959Z,45.20
2023-03-11T02:33:26.659Z,45.40
2023-03-11T02:35:53.323Z,45.50
2023-03-11T02:38:19.971Z,45.50
2023-03-11T02:40:46.585Z,45.40
2023-03-11T02:43:13.205Z,45.30
2023-03-11T02:45:39.811Z,45.30
2023-03-11T02:48:06.445Z,45.40
2023-03-11T02:50:33.085Z,45.50
2023-03-11T02:52:59.726Z,45.50
2023-03-11T02:55:26.372Z,45.60
2023-03-11T02:57:53.243Z,45.50
2023-03-11T03:00:19.872Z,45.50
2023-03-11T03:02:46.487Z,45.40
2023-03-11T03:05:13.136Z,45.50
2023-03-11T03:07:39.757Z,45.50
2023-03-11T03:10:06.413Z,45.50
2023-03-11T03:12:33.030Z,45.50
2023-03-11T03:14:59.890Z,45.40
2023-03-11T03:17:26.616Z,45.50
2023-03-11T03:19:53.360Z,45.30
2023-03-11T03:22:20.016Z,45.30
2023-03-11T03:24:46.664Z,45.40
2023-03-11T03:27:13.319Z,45.40
2023-03-11T03:29:39.951Z,45.40
2023-03-11T03:32:06.869Z,45.30
2023-03-11T03:34:33.557Z,45.40
2023-03-11T03:37:00.206Z,45.50
2023-03-11T03:39:28.779Z,45.30
2023-03-11T03:41:57.087Z,45.40
2023-03-11T03:44:23.737Z,45.40
2023-03-11T03:46:50.372Z,45.50
2023-03-11T03:49:16.981Z,45.40
2023-03-11T03:51:43.619Z,45.40
2023-03-11T03:54:10.265Z,45.30
2023-03-11T03:56:37.144Z,45.30
2023-03-11T03:59:03.765Z,45.30
2023-03-11T04:01:30.377Z,45.30
2023-03-11T04:03:56.997Z,45.40
2023-03-11T04:06:23.624Z,45.30
2023-03-11T04:08:50.272Z,45.30
2023-03-11T04:11:16.929Z,45.30
2023-03-11T04:13:43.777Z,45.30
2023-03-11T04:16:10.400Z,45.30
2023-03-11T04:18:37.080Z,45.30
2023-03-11T04:21:03.726Z,45.30
2023-03-11T04:23:30.411Z,45.30
2023-03-11T04:25:57.048Z,45.30
2023-03-11T04:28:23.688Z,45.30
2023-03-11T04:30:50.568Z,45.30
2023-03-11T04:33:17.189Z,45.30
2023-03-11T04:35:43.877Z,45.30
2023-03-11T04:38:10.560Z,45.20
2023-03-11T04:40:37.190Z,45.20
2023-03-11T04:43:03.830Z,45.20
2023-03-11T04:45:30.459Z,45.30
2023-03-11T04:47:57.304Z,45.20
2023-03-11T04:50:23.926Z,45.20
2023-03-11T04:52:50.545Z,45.30
2023-03-11T04:55:17.206Z,45.20
2023-03-11T04:57:43.862Z,45.30
2023-03-11T05:00:10.511Z,45.20
2023-03-11T05:02:37.158Z,45.20
2023-03-11T05:05:03.816Z,45.20
2023-03-11T05:07:30.442Z,45.30
2023-03-11T05:09:57.307Z,45.20
2023-03-11T05:12:23.956Z,45.10
2023-03-11T05:14:50.592Z,45.30
2023-03-11T05:17:17.250Z,45.10
2023-03-11T05:19:43.890Z,45.20
2023-03-11T05:22:10.758Z,45.10
2023-03-11T05:24:37.393Z,45.20
2023-03-11T05:27:04.036Z,45.20
2023-03-11T05:29:30.670Z,45.00
2023-03-11T05:31:57.316Z,45.00
2023-03-11T05:34:23.927Z,45.00
2023-03-11T05:36:50.563Z,45.00
2023-03-11T05:39:17.181Z,45.10
2023-03-11T05:41:43.824Z,45.10
2023-03-11T05:44:10.709Z,45.10
2023-03-11T05:46:37.413Z,45.00
2023-03-11T05:49:04.087Z,45.10
2023-03-11T05:51:30.733Z,45.10
2023-03-11T05:53:57.361Z,45.00
2023-03-11T05:56:23.990Z,45.20
2023-03-11T05:58:50.630Z,45.00
2023-03-11T06:01:17.254Z,45.00
2023-03-11T06:03:43.918Z,45.00
2023-03-11T06:06:10.856Z,45.00
2023-03-11T06:08:37.492Z,45.00
2023-03-11T06:11:04.132Z,45.00
2023-03-11T06:13:30.768Z,45.00
2023-03-11T06:15:57.415Z,45.00
2023-03-11T06:18:24.088Z,45.00
2023-03-11T06:20:50.705Z,45.00
2023-03-11T06:23:17.348Z,44.90
2023-03-11T06:25:44.009Z,45.00
2023-03-11T06:28:10.665Z,45.00
2023-03-11T06:30:37.323Z,44.90
2023-03-11T06:33:03.988Z,44.90
2023-03-11T06:35:30.743Z,44.90
2023-03-11T06:37:57.456Z,44.90
2023-03-11T06:40:24.100Z,45.00
2023-03-11T06:42:50.770Z,44.90
2023-03-11T06:45:20.178Z,44.90
2023-03-11T06:47:47.421Z,44.90
2023-03-11T06:50:14.271Z,44.90
2023-03-11T06:52:40.893Z,44.90
2023-03-11T06:55:07.774Z,44.90
2023-03-11T06:57:34.431Z,44.90
2023-03-11T07:00:01.093Z,45.70
2023-03-11T07:02:27.747Z,44.90
2023-03-11T07:04:54.391Z,44.90
2023-03-11T07:07:21.025Z,44.90
2023-03-11T07:09:47.692Z,44.80
2023-03-11T07:12:14.343Z,44.90
2023-03-11T07:14:40.984Z,44.80
2023-03-11T07:17:07.623Z,44.80
2023-03-11T07:19:34.250Z,44.80
2023-03-11T07:22:00.880Z,44.80
2023-03-11T07:24:27.535Z,44.80
2023-03-11T07:26:54.176Z,44.70
2023-03-11T07:29:21.163Z,44.70
2023-03-11T07:31:47.847Z,44.70
2023-03-11T07:34:14.493Z,44.70
2023-03-11T07:36:41.352Z,44.80
2023-03-11T07:39:08.005Z,44.70
2023-03-11T07:41:34.617Z,44.70
2023-03-11T07:44:01.237Z,44.70
2023-03-11T07:46:27.945Z,44.70
2023-03-11T07:48:54.608Z,44.70
2023-03-11T07:51:21.240Z,44.70
2023-03-11T07:53:47.886Z,44.70
2023-03-11T07:56:14.773Z,44.70
2023-03-11T07:58:41.421Z,44.60
2023-03-11T08:01:08.129Z,44.70
2023-03-11T08:03:34.793Z,44.60
2023-03-11T08:06:01.470Z,44.70
2023-03-11T08:08:28.113Z,44.60
2023-03-11T08:10:54.734Z,44.60
2023-03-11T08:13:21.351Z,44.60
2023-03-11T08:15:48.058Z,44.60
2023-03-11T08:18:15.039Z,44.50
2023-03-11T08:20:41.699Z,44.60
2023-03-11T08:23:08.311Z,44.60
2023-03-11T08:25:34.924Z,44.40
2023-03-11T08:28:01.539Z,44.20
2023-03-11T08:30:28.262Z,44.30
2023-03-11T08:32:55.072Z,44.40
2023-03-11T08:35:22.054Z,44.50
2023-03-11T08:37:48.829Z,44.50
2023-03-11T08:40:15.509Z,44.40
2023-03-11T08:42:42.191Z,44.40
2023-03-11T08:45:08.919Z,44.40
2023-03-11T08:47:35.582Z,44.40
2023-03-11T08:50:02.193Z,44.30
2023-03-11T08:52:29.068Z,44.30
2023-03-11T08:54:55.687Z,44.20
2023-03-11T08:57:22.302Z,44.20
2023-03-11T08:59:48.938Z,44.20
2023-03-11T09:02:15.554Z,44.20
2023-03-11T09:04:42.196Z,44.20
2023-03-11T09:07:08.802Z,44.10
2023-03-11T09:09:35.641Z,44.00
2023-03-11T09:12:02.283Z,44.00
2023-03-11T09:14:28.927Z,44.00
2023-03-11T09:16:55.568Z,43.90
2023-03-11T09:19:22.209Z,44.00
2023-03-11T09:21:48.822Z,44.00
2023-03-11T09:24:15.449Z,43.90
2023-03-11T09:26:42.294Z,44.10
2023-03-11T09:29:08.923Z,44.00
2023-03-11T09:31:35.615Z,44.10
2023-03-11T09:34:02.301Z,44.20
2023-03-11T09:36:28.945Z,44.10
2023-03-11T09:38:55.682Z,44.10
2023-03-11T09:41:22.531Z,44.00
2023-03-11T09:43:49.149Z,43.90
2023-03-11T09:46:15.853Z,44.10
2023-03-11T09:48:42.562Z,44.10
2023-03-11T09:51:09.201Z,44.00
2023-03-11T09:53:35.833Z,44.20
2023-03-11T09:56:02.629Z,44.10
2023-03-11T09:58:29.260Z,44.20
2023-03-11T10:00:55.869Z,44.20
2023-03-11T10:03:22.522Z,45.10
2023-03-11T10:05:49.162Z,44.10
2023-03-11T10:08:15.779Z,44.20
2023-03-11T10:10:42.400Z,44.20
2023-03-11T10:13:09.059Z,44.00
2023-03-11T10:15:37.710Z,44.20
2023-03-11T10:18:05.679Z,44.10
2023-03-11T10:20:32.287Z,44.20
2023-03-11T10:22:58.950Z,44.30
2023-03-11T10:25:25.606Z,44.20
2023-03-11T10:27:52.246Z,44.10
2023-03-11T10:30:18.888Z,44.20
2023-03-11T10:32:46.387Z,44.10
2023-03-11T10:35:13.026Z,44.30
2023-03-11T10:37:49.292Z,44.20
2023-03-11T10:40:16.920Z,44.20
2023-03-11T10:42:43.785Z,44.30
2023-03-11T10:45:10.423Z,44.20
2023-03-11T10:47:37.263Z,44.10
2023-03-11T10:50:04.056Z,44.10
2023-03-11T10:52:30.709Z,44.20
2023-03-11T10:54:57.352Z,45.10
2023-03-11T10:57:23.992Z,44.30
2023-03-11T10:59:50.639Z,44.20
2023-03-11T11:05:04.441Z,44.20
2023-03-11T11:07:31.268Z,44.10
2023-03-11T11:09:58.113Z,44.20
2023-03-11T11:12:24.793Z,44.20
2023-03-11T11:14:51.448Z,44.20
2023-03-11T11:17:18.297Z,44.30
2023-03-11T11:19:44.923Z,44.20
2023-03-11T11:22:11.554Z,44.20
2023-03-11T11:24:38.159Z,44.00
2023-03-11T11:27:05.021Z,44.00
2023-03-11T11:29:31.678Z,44.10
2023-03-11T11:31:58.331Z,43.90
2023-03-11T11:34:25.568Z,44.00
2023-03-11T11:36:52.202Z,44.10
2023-03-11T11:39:18.821Z,44.20
2023-03-11T11:41:45.435Z,44.20
2023-03-11T11:44:12.261Z,44.10
2023-03-11T11:46:38.902Z,44.10
2023-03-11T11:49:05.740Z,44.10
2023-03-11T11:51:32.373Z,44.10
2023-03-11T11:53:59.230Z,44.20
2023-03-11T11:56:25.852Z,44.20
2023-03-11T11:58:52.488Z,44.20
2023-03-11T12:01:19.132Z,44.00
2023-03-11T12:03:46.798Z,44.20
2023-03-11T12:06:13.652Z,44.20
2023-03-11T12:08:40.291Z,44.20
2023-03-11T12:11:06.950Z,44.30
2023-03-11T12:13:33.597Z,44.20
2023-03-11T12:16:02.792Z,44.20
2023-03-11T12:18:29.435Z,44.30
2023-03-11T12:20:56.087Z,43.80
2023-03-11T12:23:22.739Z,43.80
2023-03-11T12:25:49.385Z,44.00
2023-03-11T12:28:16.025Z,44.20
2023-03-11T12:30:42.641Z,44.20
2023-03-11T12:33:09.257Z,44.10
2023-03-11T12:35:35.896Z,44.10
2023-03-11T12:38:02.588Z,44.20
2023-03-11T12:40:29.466Z,44.10
2023-03-11T12:42:56.093Z,44.00
2023-03-11T12:45:22.730Z,44.20
2023-03-11T12:47:49.358Z,44.20
2023-03-11T12:50:16.046Z,44.10
2023-03-11T12:52:42.660Z,44.20
2023-03-11T12:55:09.286Z,44.00
2023-03-11T12:57:35.894Z,44.20
2023-03-11T13:00:02.496Z,44.00
2023-03-11T13:02:29.148Z,44.10
2023-03-11T13:04:55.818Z,44.10
2023-03-11T13:07:22.537Z,44.00
2023-03-11T13:09:49.186Z,44.10
2023-03-11T13:12:15.808Z,43.90
2023-03-11T13:14:42.440Z,43.90
2023-03-11T13:17:09.066Z,43.90
2023-03-11T13:19:35.689Z,43.80
2023-03-11T13:22:02.296Z,43.80
2023-03-11T13:24:28.932Z,43.90
2023-03-11T13:26:55.576Z,43.70
2023-03-11T13:29:22.194Z,43.70
2023-03-11T13:31:48.888Z,43.70
2023-03-11T13:34:15.556Z,43.60
2023-03-11T13:36:42.207Z,43.50
2023-03-11T13:39:08.847Z,43.40
2023-03-11T13:41:35.485Z,43.20
2023-03-11T13:44:02.149Z,42.90
2023-03-11T13:46:28.792Z,42.50
2023-03-11T13:48:55.438Z,42.00
2023-03-11T13:51:22.098Z,42.10
2023-03-11T13:53:48.731Z,41.90
2023-03-11T13:56:15.385Z,41.60
2023-03-11T13:58:42.001Z,41.50
2023-03-11T14:01:08.657Z,41.40
2023-03-11T14:03:35.529Z,41.10
2023-03-11T14:06:02.188Z,40.80
2023-03-11T14:08:28.846Z,40.20
2023-03-11T14:10:55.491Z,39.60
2023-03-11T14:13:22.135Z,39.40
2023-03-11T14:15:48.765Z,39.50
2023-03-11T14:18:15.371Z,39.10
2023-03-11T14:20:42.126Z,39.20
2023-03-11T14:23:10.230Z,39.50
2023-03-11T14:25:38.138Z,40.00
2023-03-11T14:28:04.809Z,40.50
2023-03-11T14:30:31.444Z,41.10
2023-03-11T14:32:58.339Z,41.30
2023-03-11T14:35:24.986Z,41.60
2023-03-11T14:37:51.600Z,41.60
2023-03-11T14:40:18.220Z,41.70
2023-03-11T14:42:44.872Z,41.60
2023-03-11T14:45:11.519Z,41.50
2023-03-11T14:47:38.183Z,41.40
2023-03-11T14:50:04.821Z,41.20
2023-03-11T14:52:31.441Z,41.10
2023-03-11T14:54:58.066Z,41.00
2023-03-11T14:57:24.689Z,41.20
2023-03-11T14:59:51.314Z,41.30
2023-03-11T15:02:17.972Z,41.40
2023-03-11T15:04:44.842Z,41.70
2023-03-11T15:07:11.471Z,41.80
2023-03-11T15:09:38.113Z,42.00
2023-03-11T15:12:04.757Z,42.20
2023-03-11T15:14:31.385Z,42.30
2023-03-11T15:16:58.075Z,42.40
2023-03-11T15:19:24.766Z,42.50
2023-03-11T15:21:51.427Z,42.50
2023-03-11T15:24:18.089Z,42.80
2023-03-11T15:26:44.722Z,42.80
2023-03-11T15:29:11.332Z,42.80
2023-03-11T15:31:37.975Z,42.80
2023-03-11T15:34:04.599Z,42.90
2023-03-11T15:36:31.466Z,42.90
2023-03-11T15:38:58.102Z,43.00
2023-03-11T15:41:24.705Z,43.00
2023-03-11T15:43:51.348Z,43.00
2023-03-11T15:46:18.051Z,43.10
2023-03-11T15:48:44.706Z,43.20
2023-03-11T15:51:11.347Z,43.20
2023-03-11T15:53:37.968Z,44.30
2023-03-11T15:56:07.928Z,43.30
2023-03-11T15:58:34.960Z,43.40
2023-03-11T16:01:01.588Z,43.40
2023-03-11T16:03:30.260Z,43.40
2023-03-11T16:05:57.942Z,43.40
2023-03-11T16:08:24.606Z,43.50
2023-03-11T16:10:51.234Z,43.50
2023-03-11T16:13:17.895Z,43.50
2023-03-11T16:15:44.505Z,43.50
2023-03-11T16:18:11.147Z,43.60
2023-03-11T16:20:37.869Z,43.60
2023-03-11T16:23:04.489Z,43.50
2023-03-11T16:25:31.122Z,43.70
2023-03-11T16:27:57.771Z,43.60
2023-03-11T16:30:24.418Z,43.80
2023-03-11T16:32:51.107Z,43.70
2023-03-11T16:35:17.776Z,43.70
2023-03-11T16:37:44.398Z,43.70
2023-03-11T16:40:11.042Z,43.70
2023-03-11T16:42:38.485Z,43.70
2023-03-11T16:45:05.115Z,43.80
2023-03-11T16:47:31.767Z,43.70
2023-03-11T16:49:58.422Z,43.80
2023-03-11T16:52:25.105Z,43.80
2023-03-11T16:54:51.780Z,43.90
2023-03-11T16:57:18.406Z,43.90
2023-03-11T16:59:45.575Z,43.90
2023-03-11T17:02:12.214Z,43.90
2023-03-11T17:04:38.849Z,43.90
2023-03-11T17:07:05.475Z,44.00
2023-03-11T17:09:32.115Z,44.00
2023-03-11T17:11:58.749Z,44.00
2023-03-11T17:14:25.403Z,43.90
2023-03-11T17:16:52.054Z,44.00
2023-03-11T17:19:18.694Z,44.10
2023-03-11T17:21:45.333Z,44.10
2023-03-11T17:24:11.982Z,44.20
2023-03-11T17:26:38.622Z,44.00
2023-03-11T17:29:05.242Z,43.90
2023-03-11T17:31:31.946Z,44.00
2023-03-11T17:33:58.677Z,44.00
2023-03-11T17:36:25.619Z,44.20
2023-03-11T17:38:52.692Z,43.90
2023-03-11T17:41:19.345Z,44.00
2023-03-11T17:43:45.983Z,44.10
2023-03-11T17:46:12.633Z,44.00
2023-03-11T17:48:39.279Z,44.00
2023-03-11T17:51:05.943Z,44.10
2023-03-11T17:53:32.583Z,44.20
2023-03-11T17:55:59.246Z,44.00
2023-03-11T17:58:25.877Z,44.10
2023-03-11T18:00:52.513Z,44.20
2023-03-11T18:03:19.131Z,43.90
2023-03-11T18:05:45.737Z,43.90
2023-03-11T18:08:12.377Z,44.00
2023-03-11T18:10:39.228Z,44.00
2023-03-11T18:13:05.901Z,44.10
2023-03-11T18:15:32.516Z,44.00
2023-03-11T18:17:59.817Z,44.10
2023-03-11T18:20:26.471Z,44.20
2023-03-11T18:22:53.129Z,44.00
2023-03-11T18:25:19.786Z,44.20
2023-03-11T18:27:46.434Z,44.10
2023-03-11T18:30:13.072Z,44.10
2023-03-11T18:32:39.731Z,44.10
2023-03-11T18:35:06.376Z,44.10
2023-03-11T18:37:33.038Z,44.00
2023-03-11T18:39:59.982Z,44.10
2023-03-11T18:42:26.636Z,44.00
2023-03-11T18:44:53.266Z,44.10
2023-03-11T18:47:19.964Z,45.20
2023-03-11T18:49:46.596Z,44.20
2023-03-11T18:52:13.232Z,44.10
2023-03-11T18:54:39.864Z,44.10
2023-03-11T18:57:06.496Z,44.10
2023-03-11T18:59:33.916Z,44.10
2023-03-11T19:02:00.543Z,44.20
2023-03-11T19:04:27.213Z,44.10
2023-03-11T19:06:53.867Z,44.10
2023-03-11T19:09:20.528Z,44.10
2023-03-11T19:11:47.211Z,44.10
2023-03-11T19:14:13.854Z,44.10
2023-03-11T19:16:40.557Z,44.00
2023-03-11T19:19:07.250Z,44.10
2023-03-11T19:21:33.872Z,44.20
2023-03-11T19:24:00.547Z,44.10
2023-03-11T19:26:43.173Z,44.10
2023-03-11T19:29:11.472Z,44.20
2023-03-11T19:31:38.316Z,44.10
2023-03-11T19:34:04.953Z,44.10
2023-03-11T19:36:31.594Z,44.10
2023-03-11T19:38:58.468Z,44.20
2023-03-11T19:41:25.121Z,44.10
2023-03-11T19:43:51.731Z,44.10
2023-03-11T19:46:18.461Z,44.10
2023-03-11T19:48:45.186Z,44.10
2023-03-11T19:51:11.836Z,44.20
2023-03-11T19:53:38.462Z,44.10
2023-03-11T19:56:05.080Z,44.10
2023-03-11T19:58:31.722Z,44.10
2023-03-11T20:00:58.351Z,44.10
2023-03-11T20:03:25.002Z,44.10
2023-03-11T20:05:51.728Z,44.10
2023-03-11T20:08:18.366Z,44.10
2023-03-11T20:10:44.971Z,44.20
2023-03-11T20:13:11.640Z,44.10
2023-03-11T20:15:38.340Z,44.10
2023-03-11T20:18:05.093Z,43.90
2023-03-11T20:20:31.826Z,45.10
2023-03-11T20:22:58.476Z,44.10
2023-03-11T20:25:25.096Z,44.10
2023-03-11T20:27:51.743Z,44.00
2023-03-11T20:30:18.607Z,44.00
2023-03-11T20:32:45.287Z,44.00
2023-03-11T20:35:11.986Z,44.00
2023-03-11T20:37:38.644Z,44.00
2023-03-11T20:40:05.282Z,45.10
2023-03-11T20:42:31.940Z,44.00
2023-03-11T20:44:58.569Z,44.10
2023-03-11T20:47:25.191Z,44.00
2023-03-11T20:49:51.839Z,44.00
2023-03-11T20:52:18.806Z,44.00
2023-03-11T20:54:45.466Z,44.00
2023-03-11T20:57:12.106Z,44.00
2023-03-11T20:59:38.738Z,44.10
2023-03-11T21:02:05.406Z,44.20
2023-03-11T21:04:32.131Z,44.00
2023-03-11T21:06:58.749Z,44.00
2023-03-11T21:09:25.609Z,44.00
2023-03-11T21:11:52.540Z,44.00
2023-03-11T21:14:19.333Z,44.10
2023-03-11T21:16:46.445Z,44.10
2023-03-11T21:19:13.201Z,44.00
2023-03-11T21:21:40.395Z,44.00
2023-03-11T21:24:07.099Z,44.00
2023-03-11T21:26:33.837Z,44.00
2023-03-11T21:29:00.863Z,44.00
2023-03-11T21:31:29.467Z,44.00
2023-03-11T21:33:56.455Z,44.00
2023-03-11T21:36:23.194Z,43.90
2023-03-11T21:38:50.180Z,44.00
2023-03-11T21:41:16.948Z,45.10
2023-03-11T21:43:43.624Z,44.00
2023-03-11T21:46:10.428Z,44.10
2023-03-11T21:48:37.431Z,44.00
2023-03-11T21:51:04.151Z,44.00
2023-03-11T21:53:30.954Z,43.90
2023-03-11T21:55:57.799Z,44.00
2023-03-11T21:58:24.481Z,44.00
2023-03-11T22:00:51.189Z,44.00
2023-03-11T22:03:17.872Z,43.80
2023-03-11T22:05:44.594Z,45.00
2023-03-11T22:08:11.399Z,43.90
2023-03-11T22:10:38.135Z,44.00
2023-03-11T22:13:05.076Z,43.90
2023-03-11T22:15:31.910Z,44.00
2023-03-11T22:17:59.588Z,44.00
2023-03-11T22:20:26.271Z,43.90
2023-03-11T22:22:52.929Z,43.90
2023-03-11T22:25:19.563Z,44.00
2023-03-11T22:27:46.224Z,44.00
2023-03-11T22:30:13.113Z,44.00
2023-03-11T22:32:39.792Z,44.00
2023-03-11T22:35:06.774Z,43.90
2023-03-11T22:37:33.384Z,44.00
2023-03-11T22:40:00.021Z,43.90
2023-03-11T22:42:26.686Z,44.00
2023-03-11T22:44:53.334Z,43.90
2023-03-11T22:47:19.962Z,43.90
2023-03-11T22:49:46.604Z,43.90
2023-03-11T22:52:13.216Z,43.90
2023-03-11T22:54:39.922Z,43.80
2023-03-11T22:57:06.803Z,43.90
2023-03-11T22:59:33.460Z,43.90
2023-03-11T23:02:00.121Z,44.00
2023-03-11T23:04:26.829Z,43.80
2023-03-11T23:06:53.584Z,43.90
2023-03-11T23:09:20.233Z,43.90
2023-03-11T23:11:46.856Z,43.90
2023-03-11T23:14:13.494Z,44.90
2023-03-11T23:16:40.173Z,44.00
2023-03-11T23:19:07.047Z,43.90
2023-03-11T23:21:33.685Z,44.00
2023-03-11T23:24:00.300Z,43.70
2023-03-11T23:26:26.925Z,43.80
2023-03-11T23:28:53.561Z,43.90
2023-03-11T23:31:20.243Z,43.80
2023-03-11T23:33:46.918Z,43.90
2023-03-11T23:36:13.779Z,43.90
2023-03-11T23:38:40.411Z,44.00
2023-03-11T23:41:07.798Z,43.90
2023-03-11T23:43:34.408Z,43.90
2023-03-11T23:46:01.064Z,44.00
2023-03-11T23:48:27.763Z,43.80
2023-03-11T23:50:54.596Z,43.90
2023-03-11T23:53:21.433Z,43.80
2023-03-11T23:55:48.103Z,43.90
2023-03-11T23:58:14.728Z,43.80
